Time;durP1;ratioP1;P1;durP2;ratioP2;P2;SDS_P1;SDS_P2;PMS_P1;PMS_P2;Temp;Humidity;BMP_temperature;BMP_pressure;BME280_temperature;BME280_humidity;BME280_pressure;Samples;Min_cycle;Max_cycle;Signal;HPM_P1;HPM_P2
2023/09/09 00:04:35;;;;;;;13.45;9.90;;;;;;;16.52;68.52;100538.56;30967034;28;97489;-70
2023/09/09 00:19:35;;;;;;;18.73;9.82;;;;;;;16.35;69.10;100529.19;30965351;28;97236;-71
2023/09/09 00:34:36;;;;;;;11.90;9.90;;;;;;;16.16;69.67;100523.50;30963729;28;104688;-70
2023/09/09 00:49:36;;;;;;;13.38;10.48;;;;;;;15.93;70.14;100521.09;30962377;28;97121;-68
2023/09/09 01:04:36;;;;;;;12.95;11.00;;;;;;;15.77;70.61;100529.44;30962365;28;96816;-68
2023/09/09 01:19:37;;;;;;;12.60;10.15;;;;;;;15.53;70.98;100531.56;30961414;28;97168;-69
2023/09/09 01:34:37;;;;;;;12.73;10.20;;;;;;;15.37;71.20;100528.09;30964306;28;97236;-72
2023/09/09 01:49:38;;;;;;;13.27;10.25;;;;;;;15.21;71.60;100536.44;30980109;28;106565;-70
2023/09/09 02:04:38;;;;;;;14.52;10.27;;;;;;;15.09;71.64;100533.44;30979526;28;97454;-66
2023/09/09 02:19:38;;;;;;;16.48;10.23;;;;;;;14.99;71.74;100543.66;30976785;28;116378;-71
2023/09/09 02:34:39;;;;;;;14.18;10.10;;;;;;;14.88;72.33;100537.78;30975502;28;110335;-71
2023/09/09 02:49:40;;;;;;;12.10;10.48;;;;;;;14.70;72.22;100546.22;30973005;28;109551;-66
2023/09/09 03:04:40;;;;;;;13.83;9.67;;;;;;;14.53;72.56;100550.94;30971594;28;97127;-72
2023/09/09 03:19:40;;;;;;;15.35;11.13;;;;;;;14.42;73.06;100548.75;30971103;28;96735;-65
2023/09/09 03:34:41;;;;;;;15.50;11.40;;;;;;;14.34;73.32;100552.34;30968709;28;110811;-68
2023/09/09 03:49:41;;;;;;;15.38;11.38;;;;;;;14.27;73.48;100555.97;30964561;28;96903;-69
2023/09/09 04:04:41;;;;;;;15.68;11.55;;;;;;;14.19;73.62;100560.41;30964733;28;114137;-71
2023/09/09 04:19:41;;;;;;;15.95;11.52;;;;;;;14.12;73.77;100556.81;30962007;28;99629;-69
2023/09/09 04:34:42;;;;;;;16.40;12.02;;;;;;;14.07;74.05;100561.88;30961345;28;111583;-68
2023/09/09 04:49:42;;;;;;;16.45;11.55;;;;;;;14.14;74.10;100562.78;30961525;28;96635;-71
2023/09/09 05:04:42;;;;;;;16.05;12.18;;;;;;;14.53;74.24;100566.22;30960332;28;101931;-70
2023/09/09 05:19:43;;;;;;;18.50;12.38;;;;;;;15.14;73.95;100584.66;30956515;28;97195;-68
2023/09/09 05:34:43;;;;;;;17.38;12.90;;;;;;;15.79;73.73;100581.09;30956427;28;111169;-71
2023/09/09 05:49:43;;;;;;;19.23;12.57;;;;;;;16.40;73.06;100593.94;30953265;28;97093;-69
2023/09/09 06:04:44;;;;;;;16.52;13.32;;;;;;;16.94;72.00;100589.66;30952626;28;114019;-68
2023/09/09 06:19:44;;;;;;;14.90;12.90;;;;;;;18.17;71.98;100598.44;30952520;28;114235;-67
2023/09/09 06:34:44;;;;;;;16.35;12.52;;;;;;;19.20;70.05;100597.63;30973427;28;96591;-68
2023/09/09 06:49:45;;;;;;;14.82;11.48;;;;;;;19.81;68.18;100614.25;30970895;28;100325;-71
2023/09/09 07:04:45;;;;;;;15.18;10.57;;;;;;;21.28;66.43;100626.13;30969926;28;113872;-72
2023/09/09 07:19:46;;;;;;;12.70;9.67;;;;;;;22.60;64.00;100619.75;30970002;28;97146;-71
2023/09/09 07:34:46;;;;;;;11.50;8.88;;;;;;;23.87;60.46;100629.69;30966736;28;97247;-71
2023/09/09 07:49:47;;;;;;;11.95;8.50;;;;;;;24.99;57.17;100621.41;30964136;28;97507;-72
2023/09/09 08:04:47;;;;;;;24.17;8.23;;;;;;;26.15;54.96;100642.91;30961817;28;96842;-64
2023/09/09 08:19:47;;;;;;;9.75;7.43;;;;;;;27.61;50.22;100637.66;30960783;28;116552;-68
2023/09/09 08:34:51;;;;;;;9.30;7.10;;;;;;;28.76;47.08;100613.34;30961741;28;97185;-65
2023/09/09 08:49:52;;;;;;;11.57;6.50;;;;;;;32.31;40.10;100616.44;30957573;28;96773;-64
2023/09/09 09:04:54;;;;;;;10.17;6.53;;;;;;;42.47;25.48;100610.72;30958968;28;97229;-68
2023/09/09 09:19:54;;;;;;;7.67;5.93;;;;;;;45.54;20.97;100605.50;30959939;28;97359;-63
2023/09/09 09:34:54;;;;;;;9.52;5.15;;;;;;;46.55;18.00;100609.00;30958847;28;97126;-71
2023/09/09 09:49:56;;;;;;;7.00;5.65;;;;;;;48.84;15.33;100597.47;30957253;28;97745;-67
2023/09/09 10:04:56;;;;;;;5.93;3.77;;;;;;;49.80;13.63;100585.91;30973226;28;97403;-64
2023/09/09 10:19:58;;;;;;;6.82;4.70;;;;;;;50.46;13.55;100572.13;30976057;28;98062;-65
2023/09/09 10:34:59;;;;;;;5.97;4.30;;;;;;;51.49;12.63;100558.81;30973132;28;97650;-62
2023/09/09 10:50:05;;;;;;;12.13;4.80;;;;;;;51.17;12.46;100532.06;30971824;28;97486;-65
2023/09/09 11:05:13;;;;;;;5.43;3.93;;;;;;;50.99;12.46;100543.78;30974071;28;97439;-62
2023/09/09 11:20:13;;;;;;;7.73;4.47;;;;;;;51.70;11.98;100537.56;30968014;28;97583;-66
2023/09/09 11:35:16;;;;;;;6.10;4.20;;;;;;;53.71;11.07;100529.75;30966072;28;97191;-67
2023/09/09 11:50:16;;;;;;;5.67;4.10;;;;;;;55.67;9.59;100522.81;30963268;28;96774;-69
2023/09/09 12:05:17;;;;;;;6.68;4.38;;;;;;;52.45;10.27;100509.13;30966446;28;97722;-65
2023/09/09 12:20:17;;;;;;;5.80;4.65;;;;;;;44.11;15.73;100497.81;30962824;28;97191;-69
2023/09/09 12:35:18;;;;;;;8.20;4.75;;;;;;;41.76;17.87;100478.53;30962629;28;97588;-66
2023/09/09 12:50:19;;;;;;;7.33;4.93;;;;;;;38.92;20.52;100476.09;30960462;28;97258;-69
2023/09/09 13:05:19;;;;;;;7.05;4.75;;;;;;;37.72;21.34;100468.94;30956647;28;96824;-63
2023/09/09 13:20:20;;;;;;;8.52;5.38;;;;;;;35.99;23.32;100448.09;30957213;28;98012;-67
2023/09/09 13:35:21;;;;;;;8.20;4.97;;;;;;;36.00;23.64;100452.50;30966397;28;113008;-63
2023/09/09 13:50:21;;;;;;;8.33;5.43;;;;;;;35.63;24.34;100439.16;30977012;28;97660;-63
2023/09/09 14:05:22;;;;;;;8.13;5.30;;;;;;;34.50;25.98;100440.22;30976159;28;96764;-67
2023/09/09 14:20:22;;;;;;;8.00;6.05;;;;;;;33.78;26.71;100423.06;30973637;28;96673;-63
2023/09/09 14:35:23;;;;;;;8.55;5.32;;;;;;;32.68;27.49;100405.00;30974585;28;102153;-63
2023/09/09 14:50:23;;;;;;;8.27;6.00;;;;;;;31.41;29.53;100403.91;30970075;28;97498;-69
2023/09/09 15:05:24;;;;;;;9.13;5.40;;;;;;;30.45;31.09;100390.41;30969366;28;97188;-63
2023/09/09 15:20:24;;;;;;;8.57;5.32;;;;;;;29.76;32.28;100387.22;30970574;28;100706;-63
2023/09/09 15:35:28;;;;;;;7.38;5.90;;;;;;;29.10;33.37;100390.44;30967220;28;110394;-64
2023/09/09 15:50:28;;;;;;;10.47;5.57;;;;;;;28.74;34.78;100393.50;30966474;28;97535;-70
2023/09/09 16:05:30;;;;;;;8.60;5.60;;;;;;;28.15;36.13;100384.34;30965031;28;97444;-64
2023/09/09 16:20:32;;;;;;;9.13;5.60;;;;;;;27.75;37.08;100375.19;30961807;28;97378;-65
2023/09/09 16:35:33;;;;;;;10.57;5.80;;;;;;;27.11;38.50;100378.38;30962739;28;97067;-67
2023/09/09 16:50:36;;;;;;;10.07;6.25;;;;;;;26.40;40.31;100385.50;30959528;28;109348;-64
2023/09/09 17:05:43;;;;;;;10.43;6.97;;;;;;;25.70;42.05;100376.81;30957347;28;97167;-64
2023/09/09 17:20:43;;;;;;;11.73;6.80;;;;;;;25.03;43.60;100390.06;30956955;28;97135;-63
2023/09/09 17:35:43;;;;;;;11.82;7.35;;;;;;;24.40;45.31;100398.75;30956728;28;97085;-63
2023/09/09 17:50:44;;;;;;;10.73;7.50;;;;;;;23.86;46.66;100400.34;30954061;28;96860;-65
2023/09/09 18:05:44;;;;;;;10.43;8.43;;;;;;;23.39;48.13;100407.09;30953237;28;96791;-62
2023/09/09 18:20:44;;;;;;;;;;;;;;;23.01;49.61;100416.00;30962414;28;97172;-64
2023/09/09 18:35:45;;;;;;;15.67;8.97;;;;;;;22.64;50.39;100417.28;30974195;28;97044;-63
2023/09/09 18:50:46;;;;;;;13.63;9.50;;;;;;;22.32;51.74;100425.91;30970750;28;97519;-65
2023/09/09 19:05:46;;;;;;;17.37;11.13;;;;;;;21.98;53.20;100429.34;30970524;28;113391;-62
2023/09/09 19:20:50;;;;;;;15.18;10.63;;;;;;;21.62;54.54;100434.03;30969035;28;97567;-64
2023/09/09 19:35:50;;;;;;;17.20;10.47;;;;;;;21.34;55.62;100439.28;30968175;28;97382;-62
2023/09/09 19:50:50;;;;;;;23.87;13.87;;;;;;;21.11;56.78;100435.53;30965835;28;101464;-64
2023/09/09 20:05:51;;;;;;;12.20;10.87;;;;;;;20.78;57.53;100439.59;30964638;28;100982;-63
2023/09/09 20:20:51;;;;;;;16.90;12.30;;;;;;;20.50;58.46;100441.00;30962291;28;101006;-63
2023/09/09 20:35:52;;;;;;;21.52;12.32;;;;;;;20.16;59.76;100451.47;30960806;28;99219;-63
2023/09/09 20:50:52;;;;;;;;;;;;;;;20.03;60.74;100455.13;30960272;28;96882;-62
2023/09/09 21:05:53;;;;;;;15.18;12.00;;;;;;;19.69;61.32;100449.25;30961624;28;97205;-63
2023/09/09 21:20:53;;;;;;;16.10;11.88;;;;;;;19.57;62.16;100440.22;30959945;28;102416;-62
2023/09/09 21:35:54;;;;;;;20.00;12.20;;;;;;;19.34;62.75;100428.22;30959087;28;111331;-63
2023/09/09 21:50:55;;;;;;;18.83;14.03;;;;;;;19.05;63.52;100429.69;30961528;28;96768;-62
2023/09/09 22:05:58;;;;;;;18.35;12.63;;;;;;;18.84;64.08;100426.31;30980230;28;97147;-66
2023/09/09 22:21:16;;;;;;;23.93;14.47;;;;;;;18.66;64.96;100442.41;30977676;28;97577;-66
2023/09/09 22:36:18;;;;;;;22.27;14.47;;;;;;;18.40;65.52;100423.47;30974987;28;96775;-66
2023/09/09 22:51:19;;;;;;;19.97;13.33;;;;;;;18.07;66.49;100432.56;30975917;28;97385;-62
2023/09/09 23:06:19;;;;;;;17.10;14.00;;;;;;;17.86;66.83;100413.94;30973192;28;97108;-63
2023/09/09 23:21:20;;;;;;;20.80;15.50;;;;;;;17.61;67.84;100406.56;30973069;28;96968;-64
2023/09/09 23:36:20;;;;;;;21.45;15.43;;;;;;;17.39;68.79;100406.81;30971435;28;96776;-62
2023/09/09 23:51:20;;;;;;;19.55;14.95;;;;;;;17.13;69.11;100399.63;30967642;28;99210;-63
